createdAt,value
2019-05-21T00:01:56.316Z,87.82
2019-05-21T00:04:28.438Z,87.82
2019-05-21T00:06:56.321Z,87.20
2019-05-21T00:09:25.412Z,87.31
2019-05-21T00:11:54.510Z,87.21
2019-05-21T00:14:23.721Z,87.27
2019-05-21T00:16:52.820Z,86.78
2019-05-21T00:19:21.879Z,86.50
2019-05-21T00:21:50.978Z,87.76
2019-05-21T00:24:20.155Z,86.72
2019-05-21T00:26:49.220Z,87.16
2019-05-21T00:29:54.019Z,87.16
2019-05-21T00:32:58.443Z,87.13
2019-05-21T00:36:02.949Z,85.92
2019-05-21T00:39:07.492Z,86.19
2019-05-21T00:42:02.717Z,86.01
2019-05-21T00:44:33.992Z,87.20
2019-05-21T00:47:03.178Z,87.12
2019-05-21T00:49:32.422Z,86.86
2019-05-21T00:52:08.056Z,87.12
2019-05-21T00:54:32.259Z,86.50
2019-05-21T00:57:01.339Z,86.88
2019-05-21T00:59:30.491Z,87.14
2019-05-21T01:01:59.566Z,86.99
2019-05-21T01:04:30.298Z,86.47
2019-05-21T01:06:59.402Z,87.00
2019-05-21T01:09:28.509Z,86.98
2019-05-21T01:11:57.688Z,86.68
2019-05-21T01:14:26.801Z,86.60
2019-05-21T01:16:55.911Z,87.26
2019-05-21T01:19:24.968Z,87.26
2019-05-21T01:21:54.072Z,87.44
2019-05-21T01:24:23.189Z,87.03
2019-05-21T01:26:52.290Z,87.45
2019-05-21T01:29:21.392Z,87.71
2019-05-21T01:31:50.540Z,88.03
2019-05-21T01:34:19.749Z,88.32
2019-05-21T01:36:48.869Z,88.24
2019-05-21T01:39:17.963Z,87.85
2019-05-21T01:41:47.135Z,87.21
2019-05-21T01:44:16.291Z,88.15
2019-05-21T01:46:45.425Z,88.78
2019-05-21T01:49:14.546Z,89.13
2019-05-21T01:51:43.672Z,89.09
2019-05-21T01:54:12.784Z,89.08
2019-05-21T01:56:42.000Z,88.29
2019-05-21T01:59:11.095Z,87.61
2019-05-21T02:01:40.346Z,88.48
2019-05-21T02:04:09.428Z,89.23
2019-05-21T02:06:38.569Z,89.62
2019-05-21T02:09:08.739Z,89.08
2019-05-21T02:11:37.908Z,88.85
2019-05-21T02:14:07.020Z,89.38
2019-05-21T02:16:36.186Z,89.66
2019-05-21T02:19:05.229Z,90.62
2019-05-21T02:21:34.417Z,90.81
2019-05-21T02:24:03.516Z,90.66
2019-05-21T02:26:32.617Z,90.89
2019-05-21T02:29:01.912Z,90.56
2019-05-21T02:31:31.051Z,90.62
2019-05-21T02:34:00.148Z,90.76
2019-05-21T02:36:29.347Z,91.55
2019-05-21T02:38:58.371Z,91.14
2019-05-21T02:41:27.575Z,91.10
2019-05-21T02:43:56.761Z,90.62
2019-05-21T02:46:25.897Z,91.98
2019-05-21T02:48:55.005Z,92.15
2019-05-21T02:51:24.206Z,91.54
2019-05-21T02:53:53.339Z,91.47
2019-05-21T02:56:22.351Z,91.75
2019-05-21T02:58:51.558Z,91.55
2019-05-21T03:01:37.519Z,91.15
2019-05-21T03:04:06.758Z,91.85
2019-05-21T03:06:35.895Z,92.07
2019-05-21T03:09:06.250Z,92.03
2019-05-21T03:11:35.526Z,92.11
2019-05-21T03:14:04.685Z,91.68
2019-05-21T03:16:33.799Z,92.01
2019-05-21T03:19:02.936Z,91.42
2019-05-21T03:21:32.087Z,91.73
2019-05-21T03:24:01.622Z,91.92
2019-05-21T03:26:31.118Z,92.54
2019-05-21T03:29:00.276Z,92.79
2019-05-21T03:31:29.487Z,92.81
2019-05-21T03:33:58.828Z,92.46
2019-05-21T03:36:33.511Z,92.03
2019-05-21T03:38:59.064Z,92.83
2019-05-21T03:41:28.228Z,92.68
2019-05-21T03:43:57.500Z,92.33
2019-05-21T03:46:26.613Z,91.90
2019-05-21T03:48:55.899Z,92.05
2019-05-21T03:51:25.074Z,92.67
2019-05-21T03:53:54.187Z,92.27
2019-05-21T03:56:23.364Z,92.72
2019-05-21T03:58:52.527Z,92.44
2019-05-21T04:01:21.696Z,92.53
2019-05-21T04:03:50.776Z,92.82
2019-05-21T04:06:21.590Z,92.82
2019-05-21T04:08:50.696Z,92.82
2019-05-21T04:11:19.754Z,93.40
2019-05-21T04:13:49.170Z,94.11
2019-05-21T04:16:24.830Z,93.78
2019-05-21T04:19:15.493Z,93.27
2019-05-21T04:21:44.566Z,93.20
2019-05-21T04:24:13.700Z,93.48
2019-05-21T04:26:42.817Z,92.80
2019-05-21T04:29:11.938Z,93.73
2019-05-21T04:31:41.077Z,94.25
2019-05-21T04:34:10.201Z,93.74
2019-05-21T04:36:39.265Z,93.85
2019-05-21T04:39:08.667Z,93.54
2019-05-21T04:41:37.827Z,94.14
2019-05-21T04:44:07.004Z,93.96
2019-05-21T04:46:36.077Z,93.79
2019-05-21T04:49:05.187Z,93.70
2019-05-21T04:51:34.361Z,93.41
2019-05-21T04:54:03.517Z,93.94
2019-05-21T04:56:32.564Z,93.97
2019-05-21T04:59:01.650Z,93.19
2019-05-21T05:01:30.749Z,93.86
2019-05-21T05:03:59.833Z,93.50
2019-05-21T05:06:28.959Z,93.65
2019-05-21T05:08:58.076Z,93.41
2019-05-21T05:11:27.168Z,93.32
2019-05-21T05:13:56.256Z,93.27
2019-05-21T05:16:25.329Z,93.46
2019-05-21T05:18:54.352Z,93.57
2019-05-21T05:21:23.586Z,93.49
2019-05-21T05:23:52.682Z,92.67
2019-05-21T05:26:21.816Z,92.39
2019-05-21T05:28:50.879Z,92.57
2019-05-21T05:31:20.090Z,91.98
2019-05-21T05:33:49.204Z,93.11
2019-05-21T05:36:18.529Z,93.00
2019-05-21T05:38:47.627Z,93.00
2019-05-21T05:41:16.737Z,93.27
2019-05-21T05:43:45.899Z,92.96
2019-05-21T05:46:15.000Z,93.25
2019-05-21T05:48:50.868Z,92.82
2019-05-21T05:51:19.984Z,93.28
2019-05-21T05:53:58.326Z,92.55
2019-05-21T05:56:29.473Z,92.36
2019-05-21T05:58:58.848Z,92.65
2019-05-21T06:01:29.836Z,92.92
2019-05-21T06:03:58.907Z,92.76
2019-05-21T06:06:29.269Z,92.97
2019-05-21T06:08:58.401Z,91.54
2019-05-21T06:11:27.489Z,92.00
2019-05-21T06:13:56.541Z,91.84
2019-05-21T06:16:25.685Z,91.50
2019-05-21T06:18:54.883Z,91.58
2019-05-21T06:21:24.043Z,92.23
2019-05-21T06:23:53.381Z,92.72
2019-05-21T06:26:22.646Z,92.70
2019-05-21T06:28:51.766Z,92.84
2019-05-21T06:31:21.071Z,93.08
2019-05-21T06:33:50.169Z,93.67
2019-05-21T06:36:19.318Z,93.40
2019-05-21T06:38:48.462Z,92.64
2019-05-21T06:41:17.825Z,92.36
2019-05-21T06:43:47.011Z,91.99
2019-05-21T06:46:16.243Z,92.70
2019-05-21T06:48:45.388Z,93.56
2019-05-21T06:51:14.711Z,91.69
2019-05-21T06:53:44.005Z,93.10
2019-05-21T06:56:13.204Z,94.37
2019-05-21T06:58:42.435Z,94.71
2019-05-21T07:01:11.592Z,94.52
2019-05-21T07:03:40.739Z,95.60
2019-05-21T07:06:09.908Z,96.14
2019-05-21T07:08:39.069Z,95.92
2019-05-21T07:11:08.210Z,96.29
2019-05-21T07:13:37.377Z,95.38
2019-05-21T07:16:06.544Z,95.24
2019-05-21T07:18:35.772Z,95.01
2019-05-21T07:21:04.978Z,95.74
2019-05-21T07:23:34.143Z,96.85
2019-05-21T07:26:03.297Z,96.38
2019-05-21T07:28:32.512Z,94.67
2019-05-21T07:31:01.700Z,95.30
2019-05-21T07:33:30.891Z,96.23
2019-05-21T07:35:59.958Z,97.16
2019-05-21T07:38:29.060Z,96.00
2019-05-21T07:40:58.161Z,95.64
2019-05-21T07:43:27.277Z,96.79
2019-05-21T07:45:56.327Z,96.49
2019-05-21T07:48:25.498Z,96.91
2019-05-21T07:50:54.664Z,97.57
2019-05-21T07:53:24.264Z,96.41
2019-05-21T07:55:54.111Z,96.16
2019-05-21T07:58:23.269Z,96.78
2019-05-21T08:00:52.404Z,96.47
2019-05-21T08:03:21.640Z,95.20
2019-05-21T08:05:50.891Z,96.09
2019-05-21T08:08:20.124Z,96.84
2019-05-21T08:10:49.252Z,97.15
2019-05-21T08:13:18.860Z,97.90
2019-05-21T08:15:47.950Z,97.59
2019-05-21T08:18:17.299Z,98.44
2019-05-21T08:20:47.126Z,98.45
2019-05-21T08:23:16.657Z,98.57
2019-05-21T08:25:47.340Z,98.74
2019-05-21T08:28:17.237Z,98.19
2019-05-21T08:30:47.580Z,97.08
2019-05-21T08:33:19.652Z,97.65
2019-05-21T08:35:49.978Z,97.47
2019-05-21T08:38:19.134Z,97.74
2019-05-21T08:40:48.317Z,98.07
2019-05-21T08:43:18.287Z,97.44
2019-05-21T08:45:47.595Z,98.00
2019-05-21T08:48:16.730Z,98.09
2019-05-21T08:50:45.966Z,97.88
2019-05-21T08:53:15.159Z,97.70
2019-05-21T08:55:44.303Z,98.64
2019-05-21T08:58:13.341Z,97.88
2019-05-21T09:00:42.598Z,98.53
2019-05-21T09:03:11.711Z,97.68
2019-05-21T09:05:40.917Z,96.59
2019-05-21T09:08:10.060Z,97.04
2019-05-21T09:10:41.199Z,97.66
2019-05-21T09:13:10.352Z,96.52
2019-05-21T09:15:39.498Z,96.20
2019-05-21T09:18:08.549Z,96.73
2019-05-21T09:20:37.713Z,98.09
2019-05-21T09:23:06.766Z,97.38
2019-05-21T09:25:35.829Z,97.00
2019-05-21T09:28:04.842Z,97.34
2019-05-21T09:30:33.899Z,96.98
2019-05-21T09:33:02.947Z,97.05
2019-05-21T09:35:32.010Z,97.93
2019-05-21T09:38:01.063Z,96.59
2019-05-21T09:40:30.127Z,97.17
2019-05-21T09:42:59.184Z,98.02
2019-05-21T09:45:28.269Z,96.83
2019-05-21T09:47:57.319Z,96.29
2019-05-21T09:50:26.532Z,96.54
2019-05-21T09:52:55.604Z,95.76
2019-05-21T09:55:24.707Z,96.76
2019-05-21T09:58:00.301Z,96.12
2019-05-21T10:01:00.245Z,95.93
2019-05-21T10:03:31.758Z,96.40
2019-05-21T10:06:01.102Z,96.51
2019-05-21T10:08:30.368Z,96.15
2019-05-21T10:10:59.700Z,97.10
2019-05-21T10:13:29.103Z,96.21
2019-05-21T10:16:01.493Z,95.75
2019-05-21T10:18:29.840Z,95.84
2019-05-21T10:20:59.397Z,95.53
2019-05-21T10:23:28.596Z,96.75
2019-05-21T10:25:57.701Z,96.07
2019-05-21T10:28:26.777Z,96.21
2019-05-21T10:30:55.915Z,94.63
2019-05-21T10:33:25.210Z,95.06
2019-05-21T10:35:54.366Z,96.51
2019-05-21T10:38:23.451Z,94.71
2019-05-21T10:40:52.639Z,96.66
2019-05-21T10:43:21.827Z,95.95
2019-05-21T10:45:50.855Z,95.21
2019-05-21T10:48:19.977Z,96.48
2019-05-21T10:50:49.020Z,96.12
2019-05-21T10:53:18.067Z,95.14
2019-05-21T10:55:47.093Z,96.41
2019-05-21T10:58:16.181Z,96.42
2019-05-21T11:00:47.197Z,97.49
2019-05-21T11:03:19.986Z,97.37
2019-05-21T11:06:08.902Z,97.02
2019-05-21T11:08:26.461Z,96.60
2019-05-21T11:10:55.555Z,96.96
2019-05-21T11:13:24.632Z,96.12
2019-05-21T11:15:53.665Z,96.36
2019-05-21T11:18:22.726Z,96.17
2019-05-21T11:20:51.937Z,96.33
2019-05-21T11:23:21.085Z,96.46
2019-05-21T11:25:50.127Z,96.91
2019-05-21T11:28:19.190Z,95.88
2019-05-21T11:30:48.501Z,97.03
2019-05-21T11:33:17.884Z,96.27
2019-05-21T11:35:47.949Z,95.18
2019-05-21T11:38:17.061Z,96.18
2019-05-21T11:40:50.751Z,95.97
2019-05-21T11:43:16.943Z,96.64
2019-05-21T11:45:46.140Z,96.93
2019-05-21T11:48:15.232Z,95.75
2019-05-21T11:50:44.316Z,97.62
2019-05-21T11:53:13.386Z,97.45
2019-05-21T11:55:42.567Z,96.41
2019-05-21T11:58:11.655Z,96.20
2019-05-21T12:00:40.935Z,97.89
2019-05-21T12:03:10.686Z,95.17
2019-05-21T12:05:39.794Z,96.36
2019-05-21T12:08:09.648Z,96.49
2019-05-21T12:10:39.507Z,95.39
2019-05-21T12:13:08.531Z,97.11
2019-05-21T12:15:37.702Z,97.00
2019-05-21T12:18:06.781Z,96.52
2019-05-21T12:20:37.467Z,97.25
2019-05-21T12:23:06.838Z,97.03
2019-05-21T12:25:35.886Z,96.02
2019-05-21T12:28:04.997Z,96.18
2019-05-21T12:30:34.078Z,96.34
2019-05-21T12:33:03.144Z,95.97
2019-05-21T12:35:32.211Z,95.90
2019-05-21T12:38:01.236Z,96.36
2019-05-21T12:40:30.344Z,94.18
2019-05-21T12:42:59.375Z,96.99
2019-05-21T12:45:28.432Z,95.68
2019-05-21T12:48:08.123Z,95.09
2019-05-21T12:50:37.272Z,94.93
2019-05-21T12:53:06.332Z,97.74
2019-05-21T12:55:35.386Z,96.69
2019-05-21T12:58:06.063Z,96.91
2019-05-21T13:00:35.248Z,97.33
2019-05-21T13:03:04.294Z,97.38
2019-05-21T13:05:33.467Z,97.42
2019-05-21T13:08:02.579Z,97.24
2019-05-21T13:10:31.779Z,97.04
2019-05-21T13:13:00.887Z,96.73
2019-05-21T13:15:30.127Z,96.49
2019-05-21T13:17:59.204Z,96.73
2019-05-21T13:20:28.311Z,97.32
2019-05-21T13:22:57.443Z,97.57
2019-05-21T13:25:26.544Z,96.87
2019-05-21T13:27:57.709Z,96.91
2019-05-21T13:30:26.340Z,97.82
2019-05-21T13:32:56.173Z,96.61
2019-05-21T13:35:25.312Z,97.64
2019-05-21T13:37:54.404Z,97.54
2019-05-21T13:40:23.596Z,96.97
2019-05-21T13:42:52.639Z,97.83
2019-05-21T13:45:21.669Z,98.24
2019-05-21T13:47:56.516Z,97.63
2019-05-21T13:50:25.583Z,97.72
2019-05-21T13:52:54.616Z,98.85
2019-05-21T13:55:23.725Z,100.00
2019-05-21T13:57:52.976Z,99.81
2019-05-21T14:00:28.575Z,100.00
2019-05-21T14:02:57.603Z,99.54
2019-05-21T14:05:26.773Z,99.47
2019-05-21T14:07:56.176Z,98.17
2019-05-21T14:10:25.652Z,98.62
2019-05-21T14:12:54.722Z,97.48
2019-05-21T14:15:23.858Z,96.92
2019-05-21T14:17:52.963Z,96.55
2019-05-21T14:20:22.999Z,97.36
2019-05-21T14:22:52.043Z,97.27
2019-05-21T14:25:21.055Z,97.65
2019-05-21T14:27:50.334Z,97.91
2019-05-21T14:30:19.457Z,92.85
2019-05-21T14:32:48.543Z,96.03
2019-05-21T14:35:17.645Z,95.21
2019-05-21T14:37:46.737Z,96.75
2019-05-21T14:40:30.318Z,97.00
2019-05-21T14:42:59.273Z,96.43
2019-05-21T14:45:17.460Z,95.60
2019-05-21T14:47:46.544Z,96.07
2019-05-21T14:50:15.720Z,95.35
2019-05-21T14:52:44.828Z,96.17
2019-05-21T14:55:13.878Z,94.02
2019-05-21T14:57:42.961Z,96.41
2019-05-21T15:00:31.290Z,94.94
2019-05-21T15:03:00.430Z,95.37
2019-05-21T15:05:31.092Z,94.42
2019-05-21T15:08:00.206Z,95.54
2019-05-21T15:10:29.297Z,95.58
2019-05-21T15:12:58.342Z,95.10
2019-05-21T15:15:27.416Z,95.85
2019-05-21T15:17:56.519Z,96.22
2019-05-21T15:20:42.997Z,96.36
2019-05-21T15:23:12.020Z,96.40
2019-05-21T15:25:42.389Z,96.33
2019-05-21T15:28:11.399Z,94.99
2019-05-21T15:30:40.476Z,95.42
2019-05-21T15:33:09.615Z,95.53
2019-05-21T15:35:38.609Z,95.73
2019-05-21T15:38:07.666Z,95.30
2019-05-21T15:40:36.685Z,95.55
2019-05-21T15:43:05.778Z,96.71
2019-05-21T15:45:34.826Z,96.12
2019-05-21T15:48:05.163Z,97.58
2019-05-21T15:50:34.859Z,97.10
2019-05-21T15:53:04.041Z,97.28
2019-05-21T15:55:33.116Z,96.99
2019-05-21T15:58:03.094Z,96.62
2019-05-21T16:00:32.226Z,96.60
2019-05-21T16:03:01.399Z,96.56
2019-05-21T16:05:30.488Z,96.21
2019-05-21T16:07:59.656Z,96.60
2019-05-21T16:10:37.417Z,97.47
2019-05-21T16:13:06.466Z,97.91
2019-05-21T16:15:36.999Z,96.72
2019-05-21T16:18:06.096Z,97.27
2019-05-21T16:20:36.031Z,96.99
2019-05-21T16:23:05.256Z,97.26
2019-05-21T16:25:34.332Z,97.71
2019-05-21T16:28:03.438Z,98.65
2019-05-21T16:30:32.565Z,97.64
2019-05-21T16:33:01.704Z,98.36
2019-05-21T16:35:30.860Z,97.71
2019-05-21T16:37:59.943Z,99.04
2019-05-21T16:40:29.105Z,98.67
2019-05-21T16:42:58.172Z,99.15
2019-05-21T16:45:27.382Z,99.18
2019-05-21T16:47:56.449Z,99.34
2019-05-21T16:50:31.993Z,98.78
2019-05-21T16:53:01.046Z,98.03
2019-05-21T16:55:32.321Z,98.48
2019-05-21T16:58:01.438Z,99.35
2019-05-21T17:00:30.682Z,99.05
2019-05-21T17:02:59.911Z,98.00
2019-05-21T17:05:29.081Z,98.70
2019-05-21T17:07:58.139Z,97.07
2019-05-21T17:10:27.301Z,98.40
2019-05-21T17:12:56.346Z,98.83
2019-05-21T17:15:25.529Z,98.46
2019-05-21T17:17:54.613Z,98.42
2019-05-21T17:20:23.786Z,97.65
2019-05-21T17:22:52.927Z,99.17
2019-05-21T17:25:22.101Z,98.66
2019-05-21T17:27:51.264Z,99.27
2019-05-21T17:30:20.532Z,99.45
2019-05-21T17:32:49.706Z,99.27
2019-05-21T17:35:18.798Z,99.33
2019-05-21T17:37:47.917Z,100.00
2019-05-21T17:40:17.022Z,100.00
2019-05-21T17:42:46.134Z,100.00
2019-05-21T17:45:15.259Z,100.00
2019-05-21T17:47:44.249Z,99.94
2019-05-21T17:50:13.278Z,99.58
2019-05-21T17:52:42.442Z,100.00
2019-05-21T17:55:12.389Z,100.00
2019-05-21T17:57:42.257Z,100.00
2019-05-21T18:00:11.473Z,100.00
2019-05-21T18:02:41.085Z,100.00
2019-05-21T18:05:10.429Z,100.00
2019-05-21T18:07:41.240Z,100.00
2019-05-21T18:10:11.379Z,100.00
2019-05-21T18:12:40.577Z,100.00
2019-05-21T18:15:10.243Z,100.00
2019-05-21T18:17:40.162Z,100.00
2019-05-21T18:20:10.738Z,100.00
2019-05-21T18:22:40.186Z,100.00
2019-05-21T18:25:09.404Z,100.00
2019-05-21T18:27:38.623Z,100.00
2019-05-21T18:30:07.834Z,100.00
2019-05-21T18:32:37.093Z,100.00
2019-05-21T18:35:06.278Z,100.00
2019-05-21T18:37:36.491Z,100.00
2019-05-21T18:40:06.509Z,100.00
2019-05-21T18:42:35.745Z,100.00
2019-05-21T18:45:05.143Z,100.00
2019-05-21T18:47:34.281Z,100.00
2019-05-21T18:50:03.416Z,100.00
2019-05-21T18:52:32.661Z,99.98
2019-05-21T18:55:01.734Z,99.97
2019-05-21T18:57:30.923Z,100.00
2019-05-21T19:00:00.080Z,100.00
2019-05-21T19:02:29.364Z,100.00
2019-05-21T19:04:58.588Z,100.00
2019-05-21T19:07:27.770Z,100.00
2019-05-21T19:09:56.856Z,100.00
2019-05-21T19:12:37.466Z,100.00
2019-05-21T19:14:56.878Z,100.00
2019-05-21T19:17:35.207Z,100.00
2019-05-21T19:19:56.850Z,100.00
2019-05-21T19:22:27.704Z,100.00
2019-05-21T19:24:56.886Z,100.00
2019-05-21T19:27:26.045Z,100.00
2019-05-21T19:29:55.110Z,100.00
2019-05-21T19:32:24.311Z,100.00
2019-05-21T19:34:53.391Z,99.91
2019-05-21T19:37:22.572Z,100.00
2019-05-21T19:39:51.690Z,100.00
2019-05-21T19:42:20.860Z,100.00
2019-05-21T19:44:49.975Z,100.00
2019-05-21T19:47:19.081Z,99.90
2019-05-21T19:49:48.286Z,100.00
2019-05-21T19:52:17.410Z,100.00
2019-05-21T19:54:46.547Z,100.00
2019-05-21T19:57:15.690Z,100.00
2019-05-21T19:59:44.798Z,100.00
2019-05-21T20:02:13.963Z,100.00
2019-05-21T20:04:44.802Z,100.00
2019-05-21T20:07:15.146Z,99.64
2019-05-21T20:09:45.380Z,100.00
2019-05-21T20:12:15.464Z,99.62
2019-05-21T20:14:45.121Z,100.00
2019-05-21T20:17:15.715Z,100.00
2019-05-21T20:19:46.478Z,99.73
2019-05-21T20:22:15.624Z,100.00
2019-05-21T20:24:44.782Z,100.00
2019-05-21T20:27:14.874Z,100.00
2019-05-21T20:29:44.430Z,100.00
2019-05-21T20:32:16.378Z,100.00
2019-05-21T20:34:45.666Z,100.00
2019-05-21T20:37:29.755Z,100.00
2019-05-21T20:39:59.408Z,100.00
2019-05-21T20:42:29.084Z,100.00
2019-05-21T20:44:58.419Z,100.00
2019-05-21T20:47:28.984Z,100.00
2019-05-21T20:49:58.507Z,100.00
2019-05-21T20:52:27.628Z,100.00
2019-05-21T20:54:57.180Z,100.00
2019-05-21T20:57:27.104Z,100.00
2019-05-21T20:59:56.283Z,100.00
2019-05-21T21:02:26.311Z,100.00
2019-05-21T21:04:55.903Z,100.00
2019-05-21T21:07:25.063Z,100.00
2019-05-21T21:09:54.271Z,100.00
2019-05-21T21:12:23.946Z,100.00
2019-05-21T21:14:53.461Z,100.00
2019-05-21T21:17:23.866Z,100.00
2019-05-21T21:19:53.318Z,100.00
2019-05-21T21:22:22.465Z,100.00
2019-05-21T21:24:51.739Z,100.00
2019-05-21T21:27:20.943Z,100.00
2019-05-21T21:29:50.247Z,100.00
2019-05-21T21:32:19.410Z,100.00
2019-05-21T21:34:48.502Z,100.00
2019-05-21T21:37:17.689Z,100.00
2019-05-21T21:39:46.872Z,100.00
2019-05-21T21:42:16.291Z,100.00
2019-05-21T21:44:45.684Z,100.00
2019-05-21T21:47:15.878Z,100.00
2019-05-21T21:49:45.170Z,100.00
2019-05-21T21:52:15.066Z,100.00
2019-05-21T21:54:45.487Z,100.00
2019-05-21T21:57:14.882Z,100.00
2019-05-21T21:59:44.272Z,100.00
2019-05-21T22:02:32.320Z,100.00
2019-05-21T22:05:01.792Z,100.00
2019-05-21T22:07:32.222Z,100.00
2019-05-21T22:10:01.583Z,100.00
2019-05-21T22:12:31.480Z,100.00
2019-05-21T22:15:02.050Z,100.00
2019-05-21T22:17:35.305Z,100.00
2019-05-21T22:20:06.184Z,100.00
2019-05-21T22:22:35.215Z,100.00
2019-05-21T22:25:04.629Z,100.00
2019-05-21T22:27:35.045Z,100.00
2019-05-21T22:30:05.144Z,100.00
2019-05-21T22:32:34.256Z,100.00
2019-05-21T22:35:03.383Z,100.00
2019-05-21T22:37:32.529Z,100.00
2019-05-21T22:40:01.684Z,100.00
2019-05-21T22:42:31.707Z,100.00
2019-05-21T22:45:07.801Z,100.00
2019-05-21T22:47:31.941Z,100.00
2019-05-21T22:50:01.161Z,100.00
2019-05-21T22:52:30.902Z,100.00
2019-05-21T22:55:00.664Z,100.00
2019-05-21T22:57:29.930Z,100.00
2019-05-21T22:59:59.111Z,100.00
2019-05-21T23:02:31.012Z,100.00
2019-05-21T23:05:00.248Z,100.00
2019-05-21T23:07:29.329Z,100.00
2019-05-21T23:09:58.591Z,100.00
2019-05-21T23:12:28.648Z,100.00
2019-05-21T23:14:57.734Z,100.00
2019-05-21T23:17:27.026Z,100.00
2019-05-21T23:19:57.044Z,100.00
2019-05-21T23:22:26.227Z,100.00
2019-05-21T23:24:55.416Z,100.00
2019-05-21T23:27:24.692Z,100.00
2019-05-21T23:29:54.347Z,100.00
2019-05-21T23:32:23.617Z,100.00
2019-05-21T23:34:53.581Z,100.00
2019-05-21T23:37:24.375Z,100.00
2019-05-21T23:39:54.433Z,100.00
2019-05-21T23:42:29.427Z,100.00
2019-05-21T23:44:54.476Z,100.00
2019-05-21T23:47:23.666Z,100.00
2019-05-21T23:49:52.763Z,100.00
2019-05-21T23:52:21.979Z,100.00
2019-05-21T23:54:51.191Z,100.00
2019-05-21T23:57:25.713Z,100.00
2019-05-21T23:59:55.019Z,100.00
